^^
Station Historical Data
Daily Summary for March 13, 2017 Units:  Metric    English   Both
« Previous Day
Next Day »
Daily Weekly Monthly Yearly Custom
  High: Low: Average:
Temperature: 36.5 °C 21.1 °C 28.8 °C
Dew Point: 9.4 °C 3.6 °C 7.4 °C
Humidity: 45% 14% 28%
Wind Speed: 22.7km/h 0km/h 3.7km/h
Wind Gust: 30.6km/h - -
Wind- - South
Pressure: 1011.1 hPa 1006.7 hPa -
Precipitation: 0 mm    
Historical Graphs
 
 
Tabular Data for March 13, 2017
Time Temperature Dew Point Pressure Wind Wind Speed Wind Gust Humidity Rainfall Rate (Hourly) solar Conditions
00:12 27.4 °C 9.2 °C 1010 hPa South 4.7 km/h 8 km/h 32% 0 mm 0.0 W/m2
00:23 27.3 °C 9.2 °C 1010 hPa Calm     32% 0 mm 0.0 W/m2
00:28 27.2 °C 9.1 °C 1010 hPa Calm     32% 0 mm 0.0 W/m2
00:33 27.2 °C 9.1 °C 1010 hPa South 6.4 km/h 8 km/h 32% 0 mm 0.0 W/m2
00:38 27.1 °C 9 °C 1010 hPa South 6.4 km/h 9.7 km/h 32% 0 mm 0.0 W/m2
00:43 27.1 °C 9.4 °C 1010 hPa South 7.9 km/h 11.3 km/h 33% 0 mm 0.0 W/m2
00:48 26.9 °C 9.3 °C 1010 hPa South 7.9 km/h 9.7 km/h 33% 0 mm 0.0 W/m2
00:53 26.9 °C 9.3 °C 1010 hPa South 7.9 km/h 11.3 km/h 33% 0 mm 0.0 W/m2
00:58 26.7 °C 9.1 °C 1009.7 hPa South 13 km/h 13 km/h 33% 0 mm 0.0 W/m2
01:03 26.7 °C 9.1 °C 1009.7 hPa South 11.1 km/h 14.5 km/h 33% 0 mm 0.0 W/m2
01:13 26.7 °C 9.1 °C 1010 hPa South 4.7 km/h 8 km/h 33% 0 mm 0.0 W/m2
01:18 26.5 °C 8.9 °C 1010 hPa Calm   6.4 km/h 33% 0 mm 0.0 W/m2
01:29 26.2 °C 9.1 °C 1010 hPa Calm     34% 0 mm 0.0 W/m2
01:35 26.1 °C 9 °C 1010 hPa Calm     34% 0 mm 0.0 W/m2
01:40 25.9 °C 8.8 °C 1009.7 hPa Calm     34% 0 mm 0.0 W/m2
01:45 25.8 °C 9.2 °C 1009.7 hPa South 11.1 km/h 11.3 km/h 35% 0 mm 0.0 W/m2
01:50 25.8 °C 9.2 °C 1009.7 hPa South 7.9 km/h 8 km/h 35% 0 mm 0.0 W/m2
01:55 25.6 °C 9.4 °C 1009.7 hPa South 9.7 km/h 11.3 km/h 36% 0 mm 0.0 W/m2
02:00 25.6 °C 9.4 °C 1009.7 hPa South 7.9 km/h 9.7 km/h 36% 0 mm 0.0 W/m2
02:05 25.6 °C 9.4 °C 1009.7 hPa South 7.9 km/h 9.7 km/h 36% 0 mm 0.0 W/m2
02:10 25.4 °C 9.2 °C 1009.7 hPa South 6.4 km/h 6.4 km/h 36% 0 mm 0.0 W/m2
02:15 25.2 °C 9.1 °C 1009.7 hPa South 3.2 km/h 6.4 km/h 36% 0 mm 0.0 W/m2
02:20 25.1 °C 9.4 °C 1009.7 hPa South 6.4 km/h 6.4 km/h 37% 0 mm 0.0 W/m2
02:42 25 °C 8.5 °C 1009.4 hPa South 7.9 km/h 9.7 km/h 35% 0 mm 0.0 W/m2
02:47 25.1 °C 8.6 °C 1009.4 hPa South 4.7 km/h 6.4 km/h 35% 0 mm 0.0 W/m2
02:52 25 °C 8.5 °C 1009.4 hPa South 3.2 km/h 6.4 km/h 35% 0 mm 0.0 W/m2
02:57 24.9 °C 8.4 °C 1009.4 hPa South 4.7 km/h 6.4 km/h 35% 0 mm 0.0 W/m2
03:02 24.8 °C 8.7 °C 1009.4 hPa Calm   3.2 km/h 36% 0 mm 0.0 W/m2
03:07 24.7 °C 8.6 °C 1009.4 hPa Calm     36% 0 mm 0.0 W/m2
03:12 24.6 °C 8.9 °C 1009 hPa Calm     37% 0 mm 0.0 W/m2
03:17 24.3 °C 8.7 °C 1009 hPa Calm     37% 0 mm 0.0 W/m2
03:22 24.1 °C 8.1 °C 1009 hPa Calm     36% 0 mm 0.0 W/m2
03:27 24 °C 8 °C 1009 hPa Calm     36% 0 mm 0.0 W/m2
03:33 24.1 °C 8.5 °C 1009 hPa Calm     37% 0 mm 0.0 W/m2
03:38 24.3 °C 8.7 °C 1009 hPa Calm     37% 0 mm 0.0 W/m2
03:43 24.4 °C 8.4 °C 1009 hPa Calm     36% 0 mm 0.0 W/m2
03:48 24.5 °C 8.4 °C 1009 hPa Calm     36% 0 mm 0.0 W/m2
03:53 24.6 °C 8.5 °C 1009 hPa Calm     36% 0 mm 0.0 W/m2
03:58 24.6 °C 8.1 °C 1009 hPa Calm     35% 0 mm 0.0 W/m2
04:04 24.8 °C 8.3 °C 1009 hPa Calm     35% 0 mm 0.0 W/m2
04:09 24.8 °C 8.3 °C 1009 hPa Calm     35% 0 mm 0.0 W/m2
04:14 24.7 °C 8.6 °C 1009 hPa Calm     36% 0 mm 0.0 W/m2
04:19 24.4 °C 8.4 °C 1009 hPa Calm     36% 0 mm 0.0 W/m2
04:24 24.2 °C 8.6 °C 1009 hPa Calm     37% 0 mm 0.0 W/m2
04:30 24.1 °C 8.9 °C 1009 hPa Calm     38% 0 mm 0.0 W/m2
04:35 23.9 °C 8.7 °C 1009 hPa Calm     38% 0 mm 0.0 W/m2
04:40 23.7 °C 8.5 °C 1009 hPa Calm     38% 0 mm 0.0 W/m2
04:45 23.6 °C 8.8 °C 1009 hPa Calm     39% 0 mm 0.0 W/m2
04:56 23.3 °C 8.6 °C 1009 hPa Calm     39% 0 mm 0.0 W/m2
05:01 23.4 °C 8.7 °C 1009.4 hPa Calm     39% 0 mm 0.0 W/m2
05:06 23.6 °C 8.4 °C 1009 hPa Calm     38% 0 mm 0.0 W/m2
05:11 23.8 °C 8.6 °C 1009.4 hPa Calm     38% 0 mm 0.0 W/m2
05:17 23.9 °C 8.7 °C 1009.4 hPa Calm     38% 0 mm 0.0 W/m2
05:22 23.9 °C 8.3 °C 1009.4 hPa Calm     37% 0 mm 0.0 W/m2
05:27 23.8 °C 8.6 °C 1009.4 hPa Calm     38% 0 mm 0.0 W/m2
05:33 23.7 °C 8.5 °C 1009.4 hPa Calm     38% 0 mm 0.0 W/m2
05:43 23.4 °C 8.7 °C 1009.4 hPa Calm     39% 0 mm 0.0 W/m2
05:49 23.2 °C 8.5 °C 1009.4 hPa Calm     39% 0 mm 0.0 W/m2
06:00 22.4 °C 8.1 °C 1009.7 hPa Calm     40% 0 mm 0.0 W/m2
06:08 21.9 °C 8.8 °C 1009.7 hPa Calm     43% 0 mm 0.0 W/m2
06:14 21.7 °C 8.6 °C 1009.7 hPa Calm     43% 0 mm 0.0 W/m2
06:20 21.6 °C 8.8 °C 1010 hPa Calm     44% 0 mm 0.0 W/m2
06:29 21.4 °C 9 °C 1009.7 hPa Calm     45% 0 mm 0.0 W/m2
06:34 21.3 °C 8.6 °C 1010 hPa Calm     44% 0 mm 0.0 W/m2
06:40 21.3 °C 8.9 °C 1010 hPa Calm     45% 0 mm 0.0 W/m2
06:46 21.2 °C 8.5 °C 1010 hPa Calm     44% 0 mm 0.0 W/m2
06:55 21.1 °C 8.4 °C 1010 hPa Calm     44% 0 mm 7.0 W/m2
07:01 21.1 °C 8.4 °C 1010 hPa Calm     44% 0 mm 11.0 W/m2
07:36 21.9 °C 8.1 °C 1010.4 hPa Calm     41% 0 mm 77.0 W/m2
07:46 22.5 °C 8.2 °C 1010.4 hPa Calm     40% 0 mm 116.0 W/m2
07:55 23.1 °C 8.4 °C 1010.4 hPa Calm     39% 0 mm 156.0 W/m2
08:06 23.9 °C 9.1 °C 1010.7 hPa Calm     39% 0 mm 169.0 W/m2
08:15 24.7 °C 9 °C 1010.7 hPa Calm     37% 0 mm 243.0 W/m2
08:29 25.6 °C 8.6 °C 1010.7 hPa Calm     34% 0 mm 295.0 W/m2
08:37 26.3 °C 8.7 °C 1010.7 hPa Calm     33% 0 mm 332.0 W/m2
08:43 26.8 °C 8.7 °C 1010.7 hPa Calm     32% 0 mm 353.0 W/m2
08:52 27.4 °C 8.8 °C 1010.7 hPa Calm     31% 0 mm 387.0 W/m2
08:58 27.4 °C 8.8 °C 1011.1 hPa Calm     31% 0 mm 404.0 W/m2
09:03 27.6 °C 8.9 °C 1011.1 hPa Calm     31% 0 mm 424.0 W/m2
09:08 27.8 °C 8.6 °C 1011.1 hPa Calm     30% 0 mm 438.0 W/m2
09:13 28.1 °C 8.9 °C 1011.1 hPa Calm     30% 0 mm 457.0 W/m2
09:19 28.8 °C 8.5 °C 1011.1 hPa Calm     28% 0 mm 478.0 W/m2
09:35 29.9 °C 8.3 °C 1011.1 hPa Calm   4.8 km/h 26% 0 mm 526.0 W/m2
09:46 30.1 °C 7.9 °C 1011.1 hPa Calm   8 km/h 25% 0 mm 557.0 W/m2
09:52 30.2 °C 8 °C 1011.1 hPa Calm   6.4 km/h 25% 0 mm 571.0 W/m2
10:01 30.6 °C 8.3 °C 1011.1 hPa West 1.4 km/h 17.7 km/h 25% 0 mm 601.0 W/m2
10:11 30.6 °C 8.3 °C 1011.1 hPa WNW 3.2 km/h 19.3 km/h 25% 0 mm 629.0 W/m2
10:44 32.2 °C 7.8 °C 1011.1 hPa NW 9.7 km/h 17.7 km/h 22% 0 mm 710.0 W/m2
10:54 32.8 °C 7.6 °C 1010.7 hPa NNW 11.1 km/h 22.5 km/h 21% 0 mm 735.0 W/m2
11:03 32.8 °C 7.6 °C 1010.7 hPa North 9.7 km/h 25.7 km/h 21% 0 mm 751.0 W/m2
11:25 33.5 °C 7.5 °C 1010.7 hPa NNW 17.7 km/h 29 km/h 20% 0 mm 795.0 W/m2
11:39 33.9 °C 7 °C 1010.4 hPa NNW 1.4 km/h 19.3 km/h 19% 0 mm 814.0 W/m2
11:51 34.3 °C 6.6 °C 1010.4 hPa NNW 6.4 km/h 24.1 km/h 18% 0 mm 837.0 W/m2
12:00 34.3 °C 6.6 °C 1010.4 hPa NNW 22.7 km/h 22.7 km/h 18% 0 mm 851.0 W/m2
12:14 34.8 °C 7 °C 1010 hPa North 19.5 km/h 19.5 km/h 18% 0 mm 863.0 W/m2
12:23 34.8 °C 7 °C 1010 hPa NNW 7.9 km/h 19.3 km/h 18% 0 mm 870.0 W/m2
12:32 35 °C 6.3 °C 1010 hPa NNW 9.7 km/h 19.3 km/h 17% 0 mm 875.0 W/m2
12:41 35.1 °C 6.4 °C 1009.7 hPa North 6.4 km/h 14.5 km/h 17% 0 mm 879.0 W/m2
12:47 35.1 °C 6.4 °C 1009.7 hPa NNE 1.4 km/h 17.7 km/h 17% 0 mm 877.0 W/m2
12:48 35.1 °C 6.4 °C 1009.4 hPa NNE 6.4 km/h 17.7 km/h 17% 0 mm 882.0 W/m2
12:54 35.4 °C 5.8 °C 1009.7 hPa NNE 7.9 km/h 19.3 km/h 16% 0 mm 882.0 W/m2
13:11 35.7 °C 6 °C 1009.4 hPa North 16.3 km/h 20.9 km/h 16% 0 mm 884.0 W/m2
13:22 35.6 °C 5.9 °C 1009 hPa North 11.1 km/h 30.6 km/h 16% 0 mm 881.0 W/m2
13:26 35.8 °C 5.1 °C 1009 hPa Calm   17.7 km/h 15% 0 mm 881.0 W/m2
13:29 35.6 °C 5 °C 1009 hPa North 1.4 km/h 24.1 km/h 15% 0 mm 877.0 W/m2
13:37 35.6 °C 5.9 °C 1009 hPa NNE 9.7 km/h 17.7 km/h 16% 0 mm 874.0 W/m2
13:47 36.4 °C 4.6 °C 1008.7 hPa Calm   19.3 km/h 14% 0 mm 870.0 W/m2
13:52 36.1 °C 6.3 °C 1008.7 hPa Calm   12.9 km/h 16% 0 mm 863.0 W/m2
13:58 36.2 °C 6.4 °C 1008.7 hPa North 7.9 km/h 19.3 km/h 16% 0 mm 856.0 W/m2
14:03 36.4 °C 5.6 °C 1008.7 hPa Calm   20.9 km/h 15% 0 mm 854.0 W/m2
14:09 36 °C 6.2 °C 1008.4 hPa NNE 7.9 km/h 14.5 km/h 16% 0 mm 868.0 W/m2
14:26 36 °C 6.2 °C 1008.4 hPa NNE 16.3 km/h 16.3 km/h 16% 0 mm 853.0 W/m2
14:35 36.1 °C 6.3 °C 1008.4 hPa Calm   14.5 km/h 16% 0 mm 814.0 W/m2
14:45 36.5 °C 5.7 °C 1008 hPa North 7.9 km/h 17.7 km/h 15% 0 mm 826.0 W/m2
15:00 36 °C 5.3 °C 1008 hPa Calm   14.5 km/h 15% 0 mm 121.0 W/m2
15:05 35.4 °C 5.8 °C 1007.7 hPa Calm     16% 0 mm 172.0 W/m2
15:16 36 °C 5.3 °C 1007.7 hPa North 11.1 km/h 16.1 km/h 15% 0 mm 125.0 W/m2
15:21 36 °C 5.3 °C 1007.7 hPa North 11.1 km/h 14.5 km/h 15% 0 mm 745.0 W/m2
16:06 36.4 °C 5.6 °C 1007 hPa NNE 16.3 km/h 22.5 km/h 15% 0 mm 640.0 W/m2
16:16 35.7 °C 5.1 °C 1007 hPa Calm   16.1 km/h 15% 0 mm 88.0 W/m2
16:32 35.8 °C 5.1 °C 1006.7 hPa Calm   19.3 km/h 15% 0 mm 564.0 W/m2
16:47 36.5 °C 4.7 °C 1006.7 hPa Calm   14.5 km/h 14% 0 mm 527.0 W/m2
16:57 36.5 °C 4.7 °C 1006.7 hPa North 19.5 km/h 29 km/h 14% 0 mm 385.0 W/m2
17:05 36.3 °C 4.5 °C 1006.7 hPa North 11.1 km/h 17.7 km/h 14% 0 mm 420.0 W/m2
18:23 35.6 °C 5 °C 1006.7 hPa Calm   14.5 km/h 15% 0 mm 76.0 W/m2
18:31 35.5 °C 4.9 °C 1006.7 hPa Calm   12.9 km/h 15% 0 mm 63.0 W/m2
18:33 35.3 °C 4.7 °C 1006.7 hPa NNE 7.9 km/h 11.3 km/h 15% 0 mm 49.0 W/m2
18:38 35.2 °C 4.7 °C 1006.7 hPa Calm   12.9 km/h 15% 0 mm 35.0 W/m2
18:50 35.1 °C 4.6 °C 1006.7 hPa Calm   11.3 km/h 15% 0 mm 23.0 W/m2
19:02 34.5 °C 4.1 °C 1006.7 hPa Calm     15% 0 mm 7.0 W/m2
19:09 34.3 °C 4 °C 1006.7 hPa Calm   1.6 km/h 15% 0 mm 0.0 W/m2
19:24 34 °C 3.7 °C 1006.7 hPa Calm   6.4 km/h 15% 0 mm 0.0 W/m2
19:39 33.8 °C 3.6 °C 1007 hPa Calm     15% 0 mm 0.0 W/m2
19:54 33.8 °C 4.5 °C 1007 hPa Calm     16% 0 mm 0.0 W/m2
20:04 33.7 °C 5.3 °C 1007 hPa Calm     17% 0 mm 0.0 W/m2
20:10 33.4 °C 5 °C 1007 hPa Calm     17% 0 mm 0.0 W/m2
20:28 33.2 °C 4.9 °C 1007.3 hPa Calm     17% 0 mm 0.0 W/m2
21:22 31.1 °C 4 °C 1008 hPa Calm     18% 0 mm 0.0 W/m2
21:42 29.7 °C 4.3 °C 1008.4 hPa Calm     20% 0 mm 0.0 W/m2
21:51 29.8 °C 6.4 °C 1008.7 hPa Calm     23% 0 mm 0.0 W/m2
21:57 29.9 °C 6.5 °C 1009 hPa NE 16.3 km/h 16.3 km/h 23% 0 mm 0.0 W/m2
22:03 29.9 °C 6.5 °C 1009 hPa NE 16.3 km/h 16.3 km/h 23% 0 mm 0.0 W/m2
22:13 30 °C 6.6 °C 1009 hPa SE 6.4 km/h 14.5 km/h 23% 0 mm 0.0 W/m2
22:21 29.8 °C 6.4 °C 1009.4 hPa SSE 14.3 km/h 17.7 km/h 23% 0 mm 0.0 W/m2
22:28 29.6 °C 6.3 °C 1009.4 hPa SSE 11.1 km/h 12.9 km/h 23% 0 mm 0.0 W/m2
23:40 28.1 °C 5 °C 1009.4 hPa SSE 7.9 km/h 9.7 km/h 23% 0 mm 0.0 W/m2
23:45 27.9 °C 5.5 °C 1009.4 hPa SSE 7.9 km/h 11.3 km/h 24% 0 mm 0.0 W/m2
23:50 27.8 °C 5.4 °C 1009.7 hPa SSE 7.9 km/h 11.3 km/h 24% 0 mm 0.0 W/m2
23:55 27.7 °C 5.3 °C 1009.7 hPa SSE 7.9 km/h 9.7 km/h 24% 0 mm 0.0 W/m2
Canyon Roadhouse, Fishriver Canyon, Namibia
Compliments of Weather Underground - 2.5 mb